CDT,Max TemperatureF,Mean TemperatureF,Min TemperatureF,Max Dew PointF,MeanDew PointF,Min DewpointF,Max Humidity, Mean Humidity, Min Humidity, Max Sea Level PressureIn, Mean Sea Level PressureIn, Min Sea Level PressureIn, Max VisibilityMiles, Mean VisibilityMiles, Min VisibilityMiles, Max Wind SpeedMPH, Mean Wind SpeedMPH, Max Gust SpeedMPH,PrecipitationIn, CloudCover, Events, WindDirDegrees
2013-10-1,87,79,71,75,72,70,100,81,61,30.00,29.96,29.91,10,8,3,18,7,24,0.01,5,Rain-Thunderstorm,139
2013-10-2,88,79,70,75,72,70,100,80,59,30.04,29.99,29.93,10,6,0,15,4,18,0.28,6,Fog-Rain-Thunderstorm,109
2013-10-3,88,79,70,76,72,70,100,78,55,30.02,29.97,29.91,10,7,1,12,4,14,0.01,5,,141
2013-10-4,89,81,73,76,74,71,100,78,56,29.99,29.96,29.92,10,9,6,22,7,35,T,5,,145
2013-10-5,88,80,72,75,73,71,100,83,65,29.98,29.94,29.87,10,8,1,22,5,28,0.11,6,,123
2013-10-6,75,66,56,74,61,44,94,66,38,30.02,29.94,29.87,10,9,2,20,8,29,0.22,4,Rain-Thunderstorm,323
2013-10-7,78,65,51,56,52,49,93,65,36,30.11,30.05,30.01,10,10,10,14,4,18,0.00,0,,337
2013-10-8,78,64,50,60,53,50,100,70,40,30.11,30.06,30.01,10,10,10,9,2,18,0.00,0,,23
2013-10-9,82,66,50,60,53,48,100,68,36,30.12,30.06,30.03,10,8,1,6,1,12,0.00,1,,118
2013-10-10,81,67,53,65,58,53,100,74,48,30.13,30.06,29.99,10,5,0,10,2,13,0.00,2,Fog,101
2013-10-11,86,72,57,69,64,57,100,78,55,30.04,29.98,29.93,10,7,2,10,3,14,0.00,1,,142
2013-10-12,86,77,67,73,70,67,100,83,65,30.12,30.02,29.95,10,6,0,31,5,38,1.82,5,Fog-Rain-Thunderstorm,127
2013-10-13,84,77,69,72,69,68,100,82,63,30.19,30.12,30.04,10,10,10,10,5,15,0.00,2,,37
2013-10-14,84,77,70,69,68,66,97,76,55,30.13,30.07,30.01,10,10,10,10,3,14,0.00,1,,88
2013-10-15,86,78,69,71,69,67,97,76,55,30.03,29.97,29.91,10,9,5,12,5,16,T,5,,166
2013-10-16,82,73,63,72,69,62,93,80,67,29.99,29.94,29.90,10,10,6,15,5,21,T,7,Rain,335
2013-10-17,74,64,53,62,59,54,100,79,57,30.07,30.01,29.96,10,10,5,13,3,17,T,6,Rain,345
2013-10-18,70,61,51,60,56,51,100,79,57,30.07,30.01,29.94,10,6,0,14,3,17,0.03,5,Fog-Rain,88
2013-10-19,70,58,46,60,56,48,100,84,67,30.09,30.03,29.96,10,9,2,18,6,23,0.09,4,Rain,326
2013-10-20,72,57,41,51,45,37,100,65,29,30.12,30.06,29.99,10,6,0,7,1,10,0.00,1,Fog,118
2013-10-21,72,61,49,60,55,47,100,81,61,30.06,30.01,29.97,10,9,3,12,1,14,0.00,2,,110
2013-10-22,73,62,50,61,56,50,100,75,49,30.07,30.01,29.97,10,4,0,15,4,23,0.00,4,Fog,334
2013-10-23,78,62,45,56,49,45,100,66,31,30.14,30.09,30.05,10,8,1,8,2,17,0.00,0,,3
2013-10-24,83,66,48,59,53,48,100,67,33,30.26,30.17,30.12,10,10,8,13,5,18,0.00,0,,243
2013-10-25,68,58,47,51,43,38,86,61,35,30.44,30.35,30.27,10,10,10,14,5,20,0.00,0,,49
2013-10-26,77,60,42,55,47,41,96,67,38,30.31,30.23,30.12,10,10,10,9,3,14,0.00,0,,151
2013-10-27,75,65,54,66,61,53,100,84,68,30.13,30.07,30.01,10,10,4,12,3,14,0.13,6,Rain-Thunderstorm,121
2013-10-28,79,71,63,66,64,63,100,81,62,30.18,30.11,30.03,10,6,0,6,1,8,0.00,6,Fog,131
2013-10-29,82,72,62,67,64,62,100,76,51,30.20,30.15,30.11,10,7,1,13,6,18,0.00,2,,143
2013-10-30,74,69,64,72,68,63,100,94,87,30.16,30.07,29.92,10,7,2,17,8,22,0.43,4,Rain,121
2013-10-31,75,69,62,73,68,62,100,91,82,29.91,29.81,29.73,10,7,2,26,9,40,1.76,7,Rain-Thunderstorm,194